createdAt,value
2023-03-16T00:07:29.181Z,14.40
2023-03-16T00:22:32.397Z,14.30
2023-03-16T00:37:37.113Z,18.20
2023-03-16T00:52:40.368Z,12.40
2023-03-16T01:07:45.327Z,20.80
2023-03-16T01:22:48.615Z,18.30
2023-03-16T01:37:52.037Z,15.40
2023-03-16T01:52:59.844Z,13.40
2023-03-16T02:08:05.693Z,9.30
2023-03-16T02:23:18.590Z,12.00
2023-03-16T02:38:23.122Z,11.20
2023-03-16T02:53:28.164Z,15.70
2023-03-16T03:08:33.213Z,23.90
2023-03-16T03:23:36.523Z,14.60
2023-03-16T03:38:39.786Z,11.20
2023-03-16T03:53:43.292Z,13.90
2023-03-16T04:08:55.352Z,15.40
2023-03-16T04:24:04.113Z,14.70
2023-03-16T04:39:10.759Z,30.60
2023-03-16T04:54:14.232Z,12.90
2023-03-16T05:09:20.889Z,8.70
2023-03-16T05:24:42.045Z,18.20
2023-03-16T05:39:45.263Z,43.10
2023-03-16T05:54:48.755Z,21.50
2023-03-16T06:09:52.527Z,31.90
2023-03-16T06:24:55.968Z,16.00
2023-03-16T06:39:59.561Z,21.30
2023-03-16T06:55:05.082Z,20.10
2023-03-16T07:10:15.195Z,19.80
2023-03-16T07:25:18.816Z,20.90
2023-03-16T07:40:27.191Z,21.90
2023-03-16T07:55:39.103Z,14.50
2023-03-16T08:10:48.844Z,8.70
2023-03-16T08:25:57.903Z,16.20
2023-03-16T08:41:02.272Z,22.90
2023-03-16T08:56:09.018Z,9.90
2023-03-16T09:11:15.440Z,8.10
2023-03-16T09:26:19.018Z,19.70
2023-03-16T09:41:34.507Z,7.50
2023-03-16T09:56:43.547Z,11.70
2023-03-16T10:11:53.605Z,6.40
2023-03-16T10:27:04.961Z,14.00
2023-03-16T10:42:21.534Z,7.00
2023-03-16T10:57:34.879Z,16.30
2023-03-16T11:12:39.462Z,10.00
2023-03-16T11:28:15.704Z,12.90
2023-03-16T11:43:42.039Z,10.80
2023-03-16T11:59:04.157Z,26.30
2023-03-16T12:14:47.997Z,18.40
2023-03-16T12:29:59.905Z,11.50
2023-03-16T12:45:17.896Z,6.60
2023-03-16T13:00:21.746Z,54.00
2023-03-16T13:15:30.315Z,10.30
2023-03-16T13:30:35.203Z,14.30
2023-03-16T13:45:39.833Z,7.20
2023-03-16T14:00:46.036Z,23.10
2023-03-16T14:15:49.310Z,45.20
2023-03-16T14:31:07.640Z,8.90
2023-03-16T14:46:23.344Z,9.00
2023-03-16T15:01:27.264Z,211.90
2023-03-16T15:16:31.179Z,361.10
2023-03-16T15:31:34.511Z,222.40
2023-03-16T15:46:38.279Z,50.10
2023-03-16T16:01:47.893Z,64.90
2023-03-16T16:16:53.347Z,44.30
2023-03-16T16:31:57.288Z,30.20
2023-03-16T16:47:29.745Z,52.10
2023-03-16T17:02:48.441Z,117.10
2023-03-16T17:17:53.323Z,163.90
2023-03-16T17:33:07.381Z,97.00
2023-03-16T17:48:14.904Z,84.20
2023-03-16T18:18:27.239Z,75.00
2023-03-16T18:33:39.016Z,101.90
2023-03-16T18:48:44.295Z,115.80
2023-03-16T19:03:49.960Z,93.20
2023-03-16T19:18:53.846Z,84.70
2023-03-16T19:33:59.269Z,188.90
2023-03-16T19:49:03.223Z,214.80
2023-03-16T20:04:18.696Z,163.60
2023-03-16T20:19:22.430Z,158.00
2023-03-16T20:34:29.550Z,107.50
2023-03-16T20:49:34.744Z,90.40
2023-03-16T21:04:39.633Z,62.50
2023-03-16T21:19:44.641Z,45.50
2023-03-16T21:34:49.344Z,26.10
2023-03-16T21:49:55.784Z,37.90
2023-03-16T22:05:00.606Z,28.80
2023-03-16T22:20:15.795Z,49.80
2023-03-16T22:35:33.498Z,183.50
2023-03-16T22:50:36.946Z,188.60
2023-03-16T23:05:40.227Z,124.30
2023-03-16T23:20:43.420Z,116.10
2023-03-16T23:35:46.903Z,120.50
2023-03-16T23:50:53.237Z,120.00
